createdAt,value
2022-12-01T00:01:11.091Z,8.90
2022-12-01T00:03:38.315Z,8.90
2022-12-01T00:06:13.203Z,9.00
2022-12-01T00:08:40.046Z,8.90
2022-12-01T00:11:09.975Z,8.90
2022-12-01T00:13:37.471Z,8.90
2022-12-01T00:16:15.632Z,8.80
2022-12-01T00:18:43.019Z,8.80
2022-12-01T00:21:20.931Z,8.80
2022-12-01T00:23:51.017Z,8.80
2022-12-01T00:26:19.585Z,8.70
2022-12-01T00:28:51.653Z,8.70
2022-12-01T00:31:18.978Z,8.70
2022-12-01T00:33:45.865Z,8.70
2022-12-01T00:36:12.752Z,8.60
2022-12-01T00:38:39.648Z,8.60
2022-12-01T00:41:06.463Z,8.60
2022-12-01T00:43:33.291Z,8.60
2022-12-01T00:46:00.237Z,8.50
2022-12-01T00:48:27.630Z,8.50
2022-12-01T00:50:55.384Z,8.40
2022-12-01T00:53:22.287Z,8.40
2022-12-01T00:55:49.212Z,8.40
2022-12-01T00:58:16.038Z,8.50
2022-12-01T01:00:43.108Z,8.40
2022-12-01T01:03:10.923Z,8.40
2022-12-01T01:05:39.226Z,8.40
2022-12-01T01:08:14.939Z,8.40
2022-12-01T01:10:45.017Z,8.40
2022-12-01T01:13:13.283Z,8.40
2022-12-01T01:15:40.811Z,8.30
2022-12-01T01:18:09.757Z,8.30
2022-12-01T01:20:36.652Z,8.30
2022-12-01T01:23:03.861Z,8.40
2022-12-01T01:25:32.055Z,8.30
2022-12-01T01:27:58.841Z,8.30
2022-12-01T01:30:25.712Z,8.30
2022-12-01T01:32:52.585Z,8.30
2022-12-01T01:35:19.403Z,8.30
2022-12-01T01:37:46.294Z,8.30
2022-12-01T01:40:13.155Z,8.30
2022-12-01T01:42:39.945Z,8.30
2022-12-01T01:45:19.865Z,8.30
2022-12-01T01:47:47.275Z,8.30
2022-12-01T01:50:16.211Z,8.40
2022-12-01T01:53:02.884Z,8.40
2022-12-01T01:55:31.911Z,8.40
2022-12-01T01:57:59.485Z,8.40
2022-12-01T02:00:26.662Z,8.40
2022-12-01T02:02:53.767Z,8.40
2022-12-01T02:05:33.021Z,8.40
2022-12-01T02:08:01.428Z,8.40
2022-12-01T02:10:50.106Z,8.40
2022-12-01T02:13:54.518Z,8.40
2022-12-01T02:16:27.377Z,8.40
2022-12-01T02:19:11.814Z,8.40
2022-12-01T02:22:06.029Z,8.40
2022-12-01T02:24:38.778Z,8.40
2022-12-01T02:27:17.788Z,8.40
2022-12-01T02:29:44.613Z,8.40
2022-12-01T02:32:20.526Z,8.40
2022-12-01T02:34:58.815Z,8.40
2022-12-01T02:37:32.523Z,8.50
2022-12-01T02:40:08.404Z,8.50
2022-12-01T02:43:08.707Z,8.50
2022-12-01T02:45:38.526Z,8.40
2022-12-01T02:48:11.192Z,8.50
2022-12-01T02:50:40.572Z,8.40
2022-12-01T02:53:10.511Z,8.40
2022-12-01T02:55:37.353Z,8.50
2022-12-01T02:58:14.412Z,8.50
2022-12-01T03:00:56.711Z,8.50
2022-12-01T03:03:40.895Z,8.50
2022-12-01T03:06:10.744Z,8.50
2022-12-01T03:08:56.521Z,8.40
2022-12-01T03:11:35.347Z,8.40
2022-12-01T03:14:22.913Z,8.40
2022-12-01T03:16:54.499Z,8.40
2022-12-01T03:19:39.778Z,8.40
2022-12-01T03:22:43.580Z,8.30
2022-12-01T03:25:13.287Z,8.30
2022-12-01T03:28:00.696Z,8.40
2022-12-01T03:30:32.126Z,8.30
2022-12-01T03:33:04.845Z,8.40
2022-12-01T03:35:52.298Z,8.30
2022-12-01T03:38:23.774Z,8.30
2022-12-01T03:40:53.773Z,8.30
2022-12-01T03:43:26.537Z,8.30
2022-12-01T03:45:53.336Z,8.30
2022-12-01T03:48:21.418Z,8.30
2022-12-01T03:51:19.387Z,8.30
2022-12-01T03:54:02.946Z,8.30
2022-12-01T03:56:37.529Z,8.30
2022-12-01T03:59:08.716Z,8.30
2022-12-01T04:01:36.370Z,8.30
2022-12-01T04:04:21.216Z,8.30
2022-12-01T04:06:50.722Z,8.20
2022-12-01T04:09:17.617Z,8.20
2022-12-01T04:12:02.883Z,8.10
2022-12-01T04:14:30.315Z,8.10
2022-12-01T04:16:57.185Z,8.10
2022-12-01T04:19:24.061Z,8.10
2022-12-01T04:21:50.886Z,8.10
2022-12-01T04:24:17.719Z,8.10
2022-12-01T04:26:46.140Z,8.10
2022-12-01T04:29:13.473Z,8.00
2022-12-01T04:31:40.881Z,8.00
2022-12-01T04:34:07.893Z,8.10
2022-12-01T04:36:35.419Z,8.00
2022-12-01T04:39:02.957Z,8.00
2022-12-01T04:41:29.814Z,8.00
2022-12-01T04:43:56.941Z,8.00
2022-12-01T04:46:24.860Z,8.00
2022-12-01T04:48:52.319Z,8.00
2022-12-01T04:51:19.600Z,8.00
2022-12-01T04:53:46.396Z,8.00
2022-12-01T04:56:13.240Z,8.00
2022-12-01T04:58:40.415Z,8.00
2022-12-01T05:01:09.477Z,8.00
2022-12-01T05:03:38.307Z,8.00
2022-12-01T05:06:14.367Z,7.90
2022-12-01T05:08:41.259Z,7.90
2022-12-01T05:11:08.903Z,7.90
2022-12-01T05:13:40.406Z,7.90
2022-12-01T05:16:08.178Z,7.90
2022-12-01T05:18:35.278Z,7.90
2022-12-01T05:21:04.050Z,7.90
2022-12-01T05:23:33.605Z,7.90
2022-12-01T05:26:00.895Z,7.90
2022-12-01T05:28:28.148Z,7.90
2022-12-01T05:30:55.431Z,7.90
2022-12-01T05:33:23.530Z,7.80
2022-12-01T05:35:51.460Z,7.90
2022-12-01T05:38:19.313Z,7.90
2022-12-01T05:40:54.479Z,7.90
2022-12-01T05:43:28.330Z,7.80
2022-12-01T05:45:56.671Z,7.90
2022-12-01T05:48:23.569Z,7.90
2022-12-01T05:50:50.418Z,7.80
2022-12-01T05:53:17.691Z,7.80
2022-12-01T05:55:44.830Z,7.80
2022-12-01T05:58:12.543Z,7.80
2022-12-01T06:00:45.281Z,7.80
2022-12-01T06:03:13.577Z,7.80
2022-12-01T06:05:41.287Z,7.80
2022-12-01T06:08:08.249Z,7.80
2022-12-01T06:10:35.067Z,7.70
2022-12-01T06:13:01.903Z,7.70
2022-12-01T06:15:28.742Z,7.70
2022-12-01T06:17:58.607Z,7.70
2022-12-01T06:20:25.707Z,7.70
2022-12-01T06:22:52.649Z,7.70
2022-12-01T06:25:19.460Z,7.80
2022-12-01T06:27:46.269Z,7.70
2022-12-01T06:30:13.517Z,7.80
2022-12-01T06:32:40.312Z,7.70
2022-12-01T06:35:07.585Z,7.70
2022-12-01T06:37:34.437Z,7.70
2022-12-01T06:40:01.220Z,7.70
2022-12-01T06:42:31.646Z,7.70
2022-12-01T06:44:58.477Z,7.70
2022-12-01T06:47:25.277Z,7.70
2022-12-01T06:49:52.346Z,7.60
2022-12-01T06:52:19.417Z,7.70
2022-12-01T06:54:46.276Z,7.60
2022-12-01T06:57:13.393Z,7.60
2022-12-01T06:59:40.341Z,7.60
2022-12-01T07:02:10.771Z,7.60
2022-12-01T07:04:37.681Z,7.60
2022-12-01T07:07:05.861Z,7.60
2022-12-01T07:09:32.734Z,7.60
2022-12-01T07:11:59.732Z,7.60
2022-12-01T07:14:27.464Z,7.60
2022-12-01T07:16:54.509Z,7.60
2022-12-01T07:19:21.405Z,7.60
2022-12-01T07:21:48.215Z,7.60
2022-12-01T07:24:15.181Z,7.60
2022-12-01T07:26:43.180Z,7.50
2022-12-01T07:29:11.388Z,7.50
2022-12-01T07:31:39.019Z,7.50
2022-12-01T07:34:06.479Z,7.50
2022-12-01T07:36:33.621Z,7.40
2022-12-01T07:39:04.642Z,7.40
2022-12-01T07:41:31.506Z,7.40
2022-12-01T07:43:58.347Z,7.40
2022-12-01T07:46:27.576Z,7.40
2022-12-01T07:48:55.671Z,7.40
2022-12-01T07:51:23.785Z,7.40
2022-12-01T07:53:52.090Z,7.50
2022-12-01T07:56:20.981Z,7.50
2022-12-01T07:58:47.892Z,7.50
2022-12-01T08:01:20.659Z,7.60
2022-12-01T08:03:52.781Z,7.60
2022-12-01T08:06:20.597Z,7.60
2022-12-01T08:08:48.113Z,7.50
2022-12-01T08:11:17.777Z,7.60
2022-12-01T08:13:44.927Z,7.60
2022-12-01T08:16:14.892Z,7.60
2022-12-01T08:18:43.111Z,7.60
2022-12-01T08:21:12.507Z,7.60
2022-12-01T08:23:39.673Z,7.70
2022-12-01T08:26:10.988Z,7.70
2022-12-01T08:28:41.152Z,7.70
2022-12-01T08:31:29.624Z,7.70
2022-12-01T08:33:57.118Z,7.70
2022-12-01T08:36:24.978Z,7.70
2022-12-01T08:38:53.919Z,7.70
2022-12-01T08:41:21.496Z,7.70
2022-12-01T08:44:03.753Z,7.60
2022-12-01T08:46:36.199Z,7.70
2022-12-01T08:49:05.378Z,7.70
2022-12-01T08:51:32.911Z,7.70
2022-12-01T08:54:00.677Z,7.70
2022-12-01T08:56:37.191Z,7.70
2022-12-01T08:59:04.955Z,7.70
2022-12-01T09:01:33.193Z,7.80
2022-12-01T09:04:09.044Z,7.80
2022-12-01T09:06:42.591Z,7.80
2022-12-01T09:09:11.616Z,7.80
2022-12-01T09:11:39.004Z,7.80
2022-12-01T09:14:05.963Z,7.80
2022-12-01T09:16:33.332Z,7.80
2022-12-01T09:19:00.341Z,7.80
2022-12-01T09:21:32.713Z,7.80
2022-12-01T09:24:00.965Z,7.80
2022-12-01T09:26:28.574Z,7.80
2022-12-01T09:28:58.295Z,7.80
2022-12-01T09:31:25.727Z,7.80
2022-12-01T09:34:01.107Z,7.80
2022-12-01T09:36:29.880Z,7.90
2022-12-01T09:38:56.844Z,7.80
2022-12-01T09:41:28.122Z,7.90
2022-12-01T09:44:01.423Z,7.90
2022-12-01T09:46:35.475Z,7.90
2022-12-01T09:49:04.162Z,7.90
2022-12-01T09:51:36.232Z,7.90
2022-12-01T09:54:03.825Z,7.90
2022-12-01T09:56:36.475Z,7.90
2022-12-01T09:59:08.146Z,7.90
2022-12-01T10:01:38.346Z,7.90
2022-12-01T10:04:11.929Z,7.90
2022-12-01T10:06:58.039Z,7.90
2022-12-01T10:09:43.856Z,7.90
2022-12-01T10:12:15.110Z,7.90
2022-12-01T10:14:43.903Z,7.90
2022-12-01T10:17:28.058Z,7.90
2022-12-01T10:20:37.855Z,7.90
2022-12-01T10:23:38.472Z,7.90
2022-12-01T10:26:17.761Z,8.00
2022-12-01T10:29:05.169Z,8.10
2022-12-01T10:31:46.603Z,8.10
2022-12-01T10:34:21.450Z,8.20
2022-12-01T10:36:48.727Z,8.20
2022-12-01T10:39:39.692Z,8.20
2022-12-01T10:42:12.755Z,8.30
2022-12-01T10:44:40.319Z,8.20
2022-12-01T10:47:25.561Z,8.30
2022-12-01T10:49:53.070Z,8.30
2022-12-01T10:52:39.312Z,8.30
2022-12-01T10:55:27.814Z,8.30
2022-12-01T10:57:57.034Z,8.20
2022-12-01T11:00:57.862Z,8.30
2022-12-01T11:03:22.344Z,8.30
2022-12-01T11:05:58.216Z,8.30
2022-12-01T11:08:40.948Z,8.30
2022-12-01T11:11:31.429Z,8.30
2022-12-01T11:14:00.822Z,8.30
2022-12-01T11:16:38.807Z,8.40
2022-12-01T11:19:28.959Z,8.30
2022-12-01T11:21:58.663Z,8.40
2022-12-01T11:24:44.385Z,8.40
2022-12-01T11:27:30.410Z,8.40
2022-12-01T11:30:22.801Z,8.40
2022-12-01T11:32:55.378Z,8.30
2022-12-01T11:35:25.935Z,8.30
2022-12-01T11:38:27.563Z,8.30
2022-12-01T11:40:47.163Z,8.40
2022-12-01T11:43:25.289Z,8.40
2022-12-01T11:45:53.643Z,8.30
2022-12-01T11:48:30.590Z,8.30
2022-12-01T11:51:30.098Z,8.30
2022-12-01T11:54:18.390Z,8.30
2022-12-01T11:56:52.768Z,8.40
2022-12-01T11:59:31.549Z,8.40
2022-12-01T12:02:32.798Z,8.50
2022-12-01T12:05:17.407Z,8.50
2022-12-01T12:08:17.875Z,8.50
2022-12-01T12:11:02.128Z,8.50
2022-12-01T12:13:53.523Z,8.50
2022-12-01T12:16:32.029Z,8.50
2022-12-01T12:19:12.020Z,8.40
2022-12-01T12:22:00.233Z,8.50
2022-12-01T12:24:39.006Z,8.50
2022-12-01T12:27:27.839Z,8.50
2022-12-01T12:30:16.560Z,8.60
2022-12-01T12:33:07.910Z,8.60
2022-12-01T12:35:58.852Z,8.60
2022-12-01T12:38:55.361Z,8.60
2022-12-01T12:41:22.195Z,8.50
2022-12-01T12:44:06.157Z,8.50
2022-12-01T12:46:35.992Z,8.50
2022-12-01T12:49:21.188Z,8.60
2022-12-01T12:52:10.464Z,8.60
2022-12-01T12:54:49.691Z,8.60
2022-12-01T12:57:48.140Z,8.60
2022-12-01T13:00:20.318Z,8.60
2022-12-01T13:03:17.035Z,8.60
2022-12-01T13:05:54.177Z,8.60
2022-12-01T13:08:25.504Z,8.70
2022-12-01T13:11:03.412Z,8.70
2022-12-01T13:14:06.559Z,8.60
2022-12-01T13:16:56.293Z,8.60
2022-12-01T13:19:29.682Z,8.60
2022-12-01T13:21:57.751Z,8.60
2022-12-01T13:24:28.677Z,8.60
2022-12-01T13:27:03.561Z,8.60
2022-12-01T13:29:43.923Z,8.60
2022-12-01T13:32:36.778Z,8.50
2022-12-01T13:35:25.062Z,8.50
2022-12-01T13:37:52.279Z,8.50
2022-12-01T13:40:30.732Z,8.50
2022-12-01T13:43:10.771Z,8.60
2022-12-01T13:45:40.323Z,8.60
2022-12-01T13:48:48.554Z,8.60
2022-12-01T13:51:15.604Z,8.60
2022-12-01T13:53:57.534Z,8.60
2022-12-01T13:56:39.321Z,8.60
2022-12-01T13:59:41.305Z,8.60
2022-12-01T14:02:20.906Z,8.60
2022-12-01T14:04:48.724Z,8.50
2022-12-01T14:07:36.695Z,8.50
2022-12-01T14:10:32.508Z,8.50
2022-12-01T14:13:03.641Z,8.50
2022-12-01T14:15:34.757Z,8.40
2022-12-01T14:18:18.901Z,8.40
2022-12-01T14:20:48.012Z,8.40
2022-12-01T14:23:33.311Z,8.40
2022-12-01T14:26:22.538Z,8.40
2022-12-01T14:28:55.167Z,8.30
2022-12-01T14:31:34.720Z,8.40
2022-12-01T14:34:04.049Z,8.40
2022-12-01T14:36:39.758Z,8.30
2022-12-01T14:39:12.511Z,8.40
2022-12-01T14:41:47.374Z,8.40
2022-12-01T14:44:25.580Z,8.40
2022-12-01T14:47:00.133Z,8.50
2022-12-01T14:49:32.493Z,8.40
2022-12-01T14:52:05.259Z,8.40
2022-12-01T14:54:39.162Z,8.40
2022-12-01T14:57:11.082Z,8.50
2022-12-01T14:59:40.969Z,8.50
2022-12-01T15:02:12.248Z,8.50
2022-12-01T15:05:08.949Z,8.40
2022-12-01T15:07:42.253Z,8.40
2022-12-01T15:10:20.011Z,8.50
2022-12-01T15:12:47.740Z,8.50
2022-12-01T15:15:23.936Z,8.50
2022-12-01T15:17:52.723Z,8.40
2022-12-01T15:20:31.497Z,8.40
2022-12-01T15:22:58.948Z,8.50
2022-12-01T15:25:30.151Z,8.40
2022-12-01T15:28:12.409Z,8.50
2022-12-01T15:30:41.712Z,8.40
2022-12-01T15:33:22.706Z,8.50
2022-12-01T15:35:53.511Z,8.50
2022-12-01T15:38:27.310Z,8.40
2022-12-01T15:43:42.279Z,8.50
2022-12-01T15:46:15.752Z,8.40
2022-12-01T15:48:43.361Z,8.40
2022-12-01T15:51:17.045Z,8.50
2022-12-01T15:53:51.272Z,8.50
2022-12-01T15:56:26.149Z,8.50
2022-12-01T15:58:58.219Z,8.50
2022-12-01T16:01:30.462Z,8.50
2022-12-01T16:04:19.287Z,8.50
2022-12-01T16:07:01.597Z,8.50
2022-12-01T16:09:36.319Z,8.50
2022-12-01T16:12:24.805Z,8.50
2022-12-01T16:15:14.095Z,8.50
2022-12-01T16:17:43.912Z,8.50
2022-12-01T16:20:33.031Z,8.60
2022-12-01T16:23:03.645Z,8.60
2022-12-01T16:25:34.300Z,8.60
2022-12-01T16:28:01.736Z,8.60
2022-12-01T16:30:35.082Z,8.60
2022-12-01T16:33:14.192Z,8.60
2022-12-01T16:35:42.186Z,8.60
2022-12-01T16:38:20.599Z,8.60
2022-12-01T16:40:50.098Z,8.60
2022-12-01T16:43:19.497Z,8.60
2022-12-01T16:45:50.403Z,8.60
2022-12-01T16:48:20.202Z,8.60
2022-12-01T16:50:50.941Z,8.70
2022-12-01T16:53:18.292Z,8.70
2022-12-01T16:56:03.551Z,8.70
2022-12-01T16:58:30.649Z,8.70
2022-12-01T17:00:57.905Z,8.70
2022-12-01T17:03:27.307Z,8.70
2022-12-01T17:05:55.243Z,8.70
2022-12-01T17:08:22.471Z,8.70
2022-12-01T17:10:51.027Z,8.70
2022-12-01T17:13:19.007Z,8.70
2022-12-01T17:15:47.609Z,8.70
2022-12-01T17:18:16.605Z,8.70
2022-12-01T17:20:44.198Z,8.70
2022-12-01T17:23:12.442Z,8.70
2022-12-01T17:25:42.482Z,8.70
2022-12-01T17:28:09.301Z,8.70
2022-12-01T17:30:37.068Z,8.70
2022-12-01T17:33:04.069Z,8.70
2022-12-01T17:35:30.899Z,8.70
2022-12-01T17:37:57.926Z,8.70
2022-12-01T17:40:24.842Z,8.70
2022-12-01T17:42:51.791Z,8.60
2022-12-01T17:45:19.252Z,8.60
2022-12-01T17:47:46.278Z,8.60
2022-12-01T17:50:13.349Z,8.60
2022-12-01T17:52:40.251Z,8.60
2022-12-01T17:55:07.731Z,8.60
2022-12-01T17:57:35.024Z,8.60
2022-12-01T18:00:02.861Z,8.70
2022-12-01T18:02:29.658Z,8.60
2022-12-01T18:04:56.510Z,8.60
2022-12-01T18:07:23.446Z,8.60
2022-12-01T18:09:50.259Z,8.60
2022-12-01T18:12:17.115Z,8.60
2022-12-01T18:14:43.942Z,8.70
2022-12-01T18:17:10.739Z,8.70
2022-12-01T18:19:37.584Z,8.70
2022-12-01T18:22:04.427Z,8.70
2022-12-01T18:24:31.333Z,8.70
2022-12-01T18:26:58.329Z,8.70
2022-12-01T18:29:28.862Z,8.70
2022-12-01T18:32:00.393Z,8.70
2022-12-01T18:34:29.618Z,8.60
2022-12-01T18:36:56.894Z,8.60
2022-12-01T18:39:23.730Z,8.60
2022-12-01T18:41:50.619Z,8.60
2022-12-01T18:44:17.564Z,8.60
2022-12-01T18:46:44.425Z,8.60
2022-12-01T18:49:12.201Z,8.60
2022-12-01T18:51:39.734Z,8.60
2022-12-01T18:54:08.094Z,8.60
2022-12-01T18:56:35.219Z,8.60
2022-12-01T18:59:05.284Z,8.60
2022-12-01T19:01:44.247Z,8.60
2022-12-01T19:04:11.932Z,8.60
2022-12-01T19:06:40.275Z,8.60
2022-12-01T19:09:09.512Z,8.60
2022-12-01T19:11:37.462Z,8.60
2022-12-01T19:14:04.838Z,8.60
2022-12-01T19:16:32.180Z,8.60
2022-12-01T19:19:00.957Z,8.60
2022-12-01T19:21:27.794Z,8.60
2022-12-01T19:23:54.736Z,8.60
2022-12-01T19:26:22.681Z,8.60
2022-12-01T19:28:49.814Z,8.60
2022-12-01T19:31:22.951Z,8.50
2022-12-01T19:33:50.638Z,8.50
2022-12-01T19:36:21.890Z,8.50
2022-12-01T19:38:48.865Z,8.50
2022-12-01T19:41:15.866Z,8.50
2022-12-01T19:43:42.788Z,8.50
2022-12-01T19:46:16.171Z,8.50
2022-12-01T19:48:43.447Z,8.50
2022-12-01T19:51:22.083Z,8.50
2022-12-01T19:53:49.085Z,8.50
2022-12-01T19:56:16.041Z,8.50
2022-12-01T19:58:42.952Z,8.50
2022-12-01T20:01:12.409Z,8.50
2022-12-01T20:03:40.782Z,8.50
2022-12-01T20:06:10.410Z,8.50
2022-12-01T20:08:37.642Z,8.50
2022-12-01T20:11:05.700Z,8.40
2022-12-01T20:13:34.957Z,8.40
2022-12-01T20:16:07.450Z,8.40
2022-12-01T20:18:35.213Z,8.40
2022-12-01T20:21:23.862Z,8.40
2022-12-01T20:23:55.633Z,8.40
2022-12-01T20:26:27.544Z,8.40
2022-12-01T20:29:01.310Z,8.40
2022-12-01T20:31:29.811Z,8.40
2022-12-01T20:33:58.973Z,8.40
2022-12-01T20:36:26.507Z,8.40
2022-12-01T20:38:53.973Z,8.40
2022-12-01T20:41:20.884Z,8.50
2022-12-01T20:43:47.771Z,8.50
2022-12-01T20:46:15.576Z,8.40
2022-12-01T20:48:42.870Z,8.40
2022-12-01T20:51:12.011Z,8.40
2022-12-01T20:53:38.786Z,8.50
2022-12-01T20:56:07.515Z,8.40
2022-12-01T20:58:37.766Z,8.50
2022-12-01T21:01:16.982Z,8.50
2022-12-01T21:03:45.120Z,8.40
2022-12-01T21:06:13.854Z,8.40
2022-12-01T21:08:42.715Z,8.40
2022-12-01T21:11:41.041Z,8.40
2022-12-01T21:14:34.532Z,8.40
2022-12-01T21:17:23.726Z,8.40
2022-12-01T21:20:05.240Z,8.40
2022-12-01T21:22:32.119Z,8.40
2022-12-01T21:25:07.676Z,8.40
2022-12-01T21:27:34.469Z,8.40
2022-12-01T21:30:01.532Z,8.50
2022-12-01T21:32:34.132Z,8.40
2022-12-01T21:35:08.795Z,8.50
2022-12-01T21:37:35.669Z,8.50
2022-12-01T21:40:02.828Z,8.40
2022-12-01T21:42:31.852Z,8.50
2022-12-01T21:44:58.706Z,8.50
2022-12-01T21:47:30.568Z,8.50
2022-12-01T21:49:59.522Z,8.50
2022-12-01T21:52:30.413Z,8.50
2022-12-01T21:55:23.144Z,8.50
2022-12-01T21:57:51.987Z,8.50
2022-12-01T22:00:32.657Z,8.50
2022-12-01T22:03:08.453Z,8.50
2022-12-01T22:05:55.832Z,8.50
2022-12-01T22:08:36.808Z,8.50
2022-12-01T22:11:25.051Z,8.50
2022-12-01T22:14:19.856Z,8.60
2022-12-01T22:16:57.114Z,8.60
2022-12-01T22:19:31.504Z,8.60
2022-12-01T22:22:15.843Z,8.50
2022-12-01T22:24:45.909Z,8.50
2022-12-01T22:27:36.979Z,8.60
2022-12-01T22:30:07.399Z,8.50
2022-12-01T22:32:47.963Z,8.60
2022-12-01T22:35:20.962Z,8.60
2022-12-01T22:37:54.026Z,8.60
2022-12-01T22:40:33.752Z,8.60
2022-12-01T22:43:27.877Z,8.50
2022-12-01T22:46:22.178Z,8.50
2022-12-01T22:49:22.501Z,8.60
2022-12-01T22:51:59.619Z,8.50
2022-12-01T22:54:29.707Z,8.60
2022-12-01T22:57:02.625Z,8.50
2022-12-01T22:59:37.657Z,8.50
2022-12-01T23:02:25.444Z,8.50
2022-12-01T23:04:57.434Z,8.50
2022-12-01T23:07:27.741Z,8.50
2022-12-01T23:10:03.830Z,8.50
2022-12-01T23:12:31.881Z,8.50
2022-12-01T23:15:22.242Z,8.50
2022-12-01T23:17:50.310Z,8.50
2022-12-01T23:20:19.961Z,8.50
2022-12-01T23:22:47.930Z,8.50
2022-12-01T23:25:19.860Z,8.50
2022-12-01T23:27:49.260Z,8.50
2022-12-01T23:30:18.035Z,8.50
2022-12-01T23:32:46.844Z,8.50
2022-12-01T23:35:18.279Z,8.50
2022-12-01T23:37:47.516Z,8.50
2022-12-01T23:40:23.305Z,8.50
2022-12-01T23:42:50.737Z,8.50
2022-12-01T23:45:24.329Z,8.50
2022-12-01T23:47:54.488Z,8.50
2022-12-01T23:50:26.424Z,8.40
2022-12-01T23:52:53.831Z,8.40
2022-12-01T23:55:28.732Z,8.50
2022-12-01T23:57:56.160Z,8.40
